sensor_id;sensor_type;location;lat;lon;timestamp;P1;durP1;ratioP1;P2;durP2;ratioP2
70270;SDS011;57680;54.292;18.598;2023-04-25T00:02:00;9.17;;;4.97;;
70270;SDS011;57680;54.292;18.598;2023-04-25T00:04:26;9.00;;;4.77;;
70270;SDS011;57680;54.292;18.598;2023-04-25T00:06:53;11.00;;;4.80;;
70270;SDS011;57680;54.292;18.598;2023-04-25T00:09:19;9.23;;;4.80;;
70270;SDS011;57680;54.292;18.598;2023-04-25T00:11:44;10.43;;;4.30;;
70270;SDS011;57680;54.292;18.598;2023-04-25T00:14:09;8.80;;;4.20;;
70270;SDS011;57680;54.292;18.598;2023-04-25T00:16:35;11.97;;;4.87;;
70270;SDS011;57680;54.292;18.598;2023-04-25T00:19:00;8.90;;;4.50;;
70270;SDS011;57680;54.292;18.598;2023-04-25T00:21:26;8.77;;;4.43;;
70270;SDS011;57680;54.292;18.598;2023-04-25T00:23:52;8.73;;;4.20;;
70270;SDS011;57680;54.292;18.598;2023-04-25T00:26:18;9.00;;;4.38;;
70270;SDS011;57680;54.292;18.598;2023-04-25T00:28:43;8.60;;;4.67;;
70270;SDS011;57680;54.292;18.598;2023-04-25T00:31:08;8.80;;;4.53;;
70270;SDS011;57680;54.292;18.598;2023-04-25T00:33:34;9.63;;;4.50;;
70270;SDS011;57680;54.292;18.598;2023-04-25T00:35:59;9.00;;;4.60;;
70270;SDS011;57680;54.292;18.598;2023-04-25T00:38:25;8.77;;;4.57;;
70270;SDS011;57680;54.292;18.598;2023-04-25T00:40:50;9.07;;;4.78;;
70270;SDS011;57680;54.292;18.598;2023-04-25T00:43:16;7.23;;;4.30;;
70270;SDS011;57680;54.292;18.598;2023-04-25T00:45:41;8.43;;;4.40;;
70270;SDS011;57680;54.292;18.598;2023-04-25T00:48:08;9.20;;;4.50;;
70270;SDS011;57680;54.292;18.598;2023-04-25T00:50:33;8.33;;;4.33;;
70270;SDS011;57680;54.292;18.598;2023-04-25T00:52:59;8.55;;;4.40;;
70270;SDS011;57680;54.292;18.598;2023-04-25T00:55:25;8.80;;;4.80;;
70270;SDS011;57680;54.292;18.598;2023-04-25T00:57:51;8.77;;;4.50;;
70270;SDS011;57680;54.292;18.598;2023-04-25T01:00:17;9.13;;;4.90;;
70270;SDS011;57680;54.292;18.598;2023-04-25T01:02:43;10.17;;;5.17;;
70270;SDS011;57680;54.292;18.598;2023-04-25T01:05:09;8.82;;;4.80;;
70270;SDS011;57680;54.292;18.598;2023-04-25T01:07:34;8.43;;;4.63;;
70270;SDS011;57680;54.292;18.598;2023-04-25T01:10:00;9.15;;;4.70;;
70270;SDS011;57680;54.292;18.598;2023-04-25T01:12:25;9.47;;;4.67;;
70270;SDS011;57680;54.292;18.598;2023-04-25T01:14:51;10.70;;;5.43;;
70270;SDS011;57680;54.292;18.598;2023-04-25T01:17:17;9.93;;;5.20;;
70270;SDS011;57680;54.292;18.598;2023-04-25T01:19:43;9.48;;;4.90;;
70270;SDS011;57680;54.292;18.598;2023-04-25T01:22:08;8.47;;;4.80;;
70270;SDS011;57680;54.292;18.598;2023-04-25T01:24:34;9.35;;;4.82;;
70270;SDS011;57680;54.292;18.598;2023-04-25T01:27:00;10.20;;;5.30;;
70270;SDS011;57680;54.292;18.598;2023-04-25T01:29:26;11.45;;;5.28;;
70270;SDS011;57680;54.292;18.598;2023-04-25T01:31:52;10.13;;;4.63;;
70270;SDS011;57680;54.292;18.598;2023-04-25T01:34:18;10.53;;;5.40;;
70270;SDS011;57680;54.292;18.598;2023-04-25T01:36:44;11.63;;;5.27;;
70270;SDS011;57680;54.292;18.598;2023-04-25T01:39:09;9.50;;;4.70;;
70270;SDS011;57680;54.292;18.598;2023-04-25T01:41:35;9.43;;;4.70;;
70270;SDS011;57680;54.292;18.598;2023-04-25T01:44:01;8.97;;;5.10;;
70270;SDS011;57680;54.292;18.598;2023-04-25T01:46:27;9.40;;;4.97;;
70270;SDS011;57680;54.292;18.598;2023-04-25T01:48:53;9.35;;;5.32;;
70270;SDS011;57680;54.292;18.598;2023-04-25T01:51:18;10.13;;;5.10;;
70270;SDS011;57680;54.292;18.598;2023-04-25T01:53:44;9.80;;;5.23;;
70270;SDS011;57680;54.292;18.598;2023-04-25T01:56:09;9.95;;;4.93;;
70270;SDS011;57680;54.292;18.598;2023-04-25T01:58:35;11.73;;;5.20;;
70270;SDS011;57680;54.292;18.598;2023-04-25T02:01:00;9.87;;;4.80;;
70270;SDS011;57680;54.292;18.598;2023-04-25T02:03:26;10.88;;;5.15;;
70270;SDS011;57680;54.292;18.598;2023-04-25T02:05:51;8.80;;;4.80;;
70270;SDS011;57680;54.292;18.598;2023-04-25T02:08:17;10.20;;;5.50;;
70270;SDS011;57680;54.292;18.598;2023-04-25T02:10:42;9.13;;;5.13;;
70270;SDS011;57680;54.292;18.598;2023-04-25T02:13:08;9.83;;;5.30;;
70270;SDS011;57680;54.292;18.598;2023-04-25T02:15:34;9.95;;;5.32;;
70270;SDS011;57680;54.292;18.598;2023-04-25T02:17:59;10.00;;;5.30;;
70270;SDS011;57680;54.292;18.598;2023-04-25T02:20:24;11.13;;;5.13;;
70270;SDS011;57680;54.292;18.598;2023-04-25T02:22:50;10.77;;;5.45;;
70270;SDS011;57680;54.292;18.598;2023-04-25T02:25:16;9.90;;;5.43;;
70270;SDS011;57680;54.292;18.598;2023-04-25T02:27:42;9.77;;;5.55;;
70270;SDS011;57680;54.292;18.598;2023-04-25T02:30:08;11.50;;;5.40;;
70270;SDS011;57680;54.292;18.598;2023-04-25T02:32:33;10.27;;;5.60;;
70270;SDS011;57680;54.292;18.598;2023-04-25T02:34:59;10.93;;;5.40;;
70270;SDS011;57680;54.292;18.598;2023-04-25T02:37:25;9.85;;;5.18;;
70270;SDS011;57680;54.292;18.598;2023-04-25T02:39:50;10.33;;;5.60;;
70270;SDS011;57680;54.292;18.598;2023-04-25T02:42:16;10.20;;;5.70;;
70270;SDS011;57680;54.292;18.598;2023-04-25T02:44:41;10.37;;;5.60;;
70270;SDS011;57680;54.292;18.598;2023-04-25T02:47:06;10.45;;;5.45;;
70270;SDS011;57680;54.292;18.598;2023-04-25T02:49:32;12.30;;;5.90;;
70270;SDS011;57680;54.292;18.598;2023-04-25T02:51:57;12.97;;;6.10;;
70270;SDS011;57680;54.292;18.598;2023-04-25T02:54:23;11.57;;;6.00;;
70270;SDS011;57680;54.292;18.598;2023-04-25T02:56:48;11.27;;;6.33;;
70270;SDS011;57680;54.292;18.598;2023-04-25T02:59:13;11.10;;;6.47;;
70270;SDS011;57680;54.292;18.598;2023-04-25T03:01:38;11.77;;;6.10;;
70270;SDS011;57680;54.292;18.598;2023-04-25T03:04:04;11.83;;;5.87;;
70270;SDS011;57680;54.292;18.598;2023-04-25T03:06:29;12.50;;;5.83;;
70270;SDS011;57680;54.292;18.598;2023-04-25T03:08:54;11.47;;;5.87;;
70270;SDS011;57680;54.292;18.598;2023-04-25T03:11:20;10.90;;;5.63;;
70270;SDS011;57680;54.292;18.598;2023-04-25T03:13:45;11.67;;;5.90;;
70270;SDS011;57680;54.292;18.598;2023-04-25T03:16:11;12.73;;;6.40;;
70270;SDS011;57680;54.292;18.598;2023-04-25T03:18:36;12.90;;;6.20;;
70270;SDS011;57680;54.292;18.598;2023-04-25T03:21:02;12.13;;;5.73;;
70270;SDS011;57680;54.292;18.598;2023-04-25T03:23:27;12.02;;;5.82;;
70270;SDS011;57680;54.292;18.598;2023-04-25T03:25:53;11.23;;;5.53;;
70270;SDS011;57680;54.292;18.598;2023-04-25T03:28:18;10.80;;;5.80;;
70270;SDS011;57680;54.292;18.598;2023-04-25T03:30:44;9.40;;;5.30;;
70270;SDS011;57680;54.292;18.598;2023-04-25T03:33:09;9.87;;;5.23;;
70270;SDS011;57680;54.292;18.598;2023-04-25T03:35:34;10.50;;;5.15;;
70270;SDS011;57680;54.292;18.598;2023-04-25T03:38:00;10.80;;;5.67;;
70270;SDS011;57680;54.292;18.598;2023-04-25T03:40:25;11.93;;;5.83;;
70270;SDS011;57680;54.292;18.598;2023-04-25T03:42:50;12.63;;;5.80;;
70270;SDS011;57680;54.292;18.598;2023-04-25T03:45:16;10.63;;;6.47;;
70270;SDS011;57680;54.292;18.598;2023-04-25T03:47:41;11.83;;;6.13;;
70270;SDS011;57680;54.292;18.598;2023-04-25T03:50:06;11.40;;;6.50;;
70270;SDS011;57680;54.292;18.598;2023-04-25T03:52:32;11.85;;;5.82;;
70270;SDS011;57680;54.292;18.598;2023-04-25T03:54:57;11.37;;;5.90;;
70270;SDS011;57680;54.292;18.598;2023-04-25T03:57:22;11.93;;;6.13;;
70270;SDS011;57680;54.292;18.598;2023-04-25T03:59:48;9.67;;;4.87;;
70270;SDS011;57680;54.292;18.598;2023-04-25T04:02:13;10.33;;;4.87;;
70270;SDS011;57680;54.292;18.598;2023-04-25T04:04:38;9.57;;;4.20;;
70270;SDS011;57680;54.292;18.598;2023-04-25T04:07:04;8.47;;;4.03;;
70270;SDS011;57680;54.292;18.598;2023-04-25T04:09:29;9.33;;;4.13;;
70270;SDS011;57680;54.292;18.598;2023-04-25T04:11:54;10.17;;;4.57;;
70270;SDS011;57680;54.292;18.598;2023-04-25T04:14:20;11.47;;;4.97;;
70270;SDS011;57680;54.292;18.598;2023-04-25T04:16:45;10.27;;;4.70;;
70270;SDS011;57680;54.292;18.598;2023-04-25T04:19:11;10.57;;;4.63;;
70270;SDS011;57680;54.292;18.598;2023-04-25T04:21:36;8.00;;;3.20;;
70270;SDS011;57680;54.292;18.598;2023-04-25T04:24:01;10.23;;;4.50;;
70270;SDS011;57680;54.292;18.598;2023-04-25T04:26:27;9.57;;;4.17;;
70270;SDS011;57680;54.292;18.598;2023-04-25T04:28:52;9.37;;;3.50;;
70270;SDS011;57680;54.292;18.598;2023-04-25T04:31:18;9.77;;;4.43;;
70270;SDS011;57680;54.292;18.598;2023-04-25T04:33:43;11.17;;;4.83;;
70270;SDS011;57680;54.292;18.598;2023-04-25T04:36:09;12.30;;;4.97;;
70270;SDS011;57680;54.292;18.598;2023-04-25T04:38:34;10.07;;;4.43;;
70270;SDS011;57680;54.292;18.598;2023-04-25T04:40:59;9.60;;;4.20;;
70270;SDS011;57680;54.292;18.598;2023-04-25T04:43:25;9.90;;;4.37;;
70270;SDS011;57680;54.292;18.598;2023-04-25T04:45:50;9.73;;;4.90;;
70270;SDS011;57680;54.292;18.598;2023-04-25T04:48:16;11.67;;;4.90;;
70270;SDS011;57680;54.292;18.598;2023-04-25T04:50:44;10.37;;;5.00;;
70270;SDS011;57680;54.292;18.598;2023-04-25T04:53:09;12.18;;;5.00;;
70270;SDS011;57680;54.292;18.598;2023-04-25T04:55:35;10.77;;;4.50;;
70270;SDS011;57680;54.292;18.598;2023-04-25T04:58:00;9.47;;;4.50;;
70270;SDS011;57680;54.292;18.598;2023-04-25T05:00:25;9.37;;;4.20;;
70270;SDS011;57680;54.292;18.598;2023-04-25T05:02:51;8.80;;;4.07;;
70270;SDS011;57680;54.292;18.598;2023-04-25T05:05:16;8.63;;;3.80;;
70270;SDS011;57680;54.292;18.598;2023-04-25T05:07:41;10.53;;;4.33;;
70270;SDS011;57680;54.292;18.598;2023-04-25T05:10:07;9.40;;;4.47;;
70270;SDS011;57680;54.292;18.598;2023-04-25T05:12:33;9.43;;;4.20;;
70270;SDS011;57680;54.292;18.598;2023-04-25T05:14:58;12.70;;;4.73;;
70270;SDS011;57680;54.292;18.598;2023-04-25T05:17:23;11.73;;;5.17;;
70270;SDS011;57680;54.292;18.598;2023-04-25T05:19:49;10.80;;;5.00;;
70270;SDS011;57680;54.292;18.598;2023-04-25T05:22:14;10.37;;;4.87;;
70270;SDS011;57680;54.292;18.598;2023-04-25T05:24:39;11.23;;;5.33;;
70270;SDS011;57680;54.292;18.598;2023-04-25T05:27:05;10.63;;;5.20;;
70270;SDS011;57680;54.292;18.598;2023-04-25T05:29:30;9.17;;;3.63;;
70270;SDS011;57680;54.292;18.598;2023-04-25T05:31:55;9.47;;;4.80;;
70270;SDS011;57680;54.292;18.598;2023-04-25T05:34:21;9.97;;;4.97;;
70270;SDS011;57680;54.292;18.598;2023-04-25T05:36:46;8.03;;;3.57;;
70270;SDS011;57680;54.292;18.598;2023-04-25T05:39:11;9.80;;;4.47;;
70270;SDS011;57680;54.292;18.598;2023-04-25T05:41:36;10.07;;;4.60;;
70270;SDS011;57680;54.292;18.598;2023-04-25T05:44:02;8.63;;;3.60;;
70270;SDS011;57680;54.292;18.598;2023-04-25T05:46:27;8.13;;;3.73;;
70270;SDS011;57680;54.292;18.598;2023-04-25T05:48:52;9.00;;;3.67;;
70270;SDS011;57680;54.292;18.598;2023-04-25T05:51:18;8.50;;;3.90;;
70270;SDS011;57680;54.292;18.598;2023-04-25T05:53:43;8.73;;;3.67;;
70270;SDS011;57680;54.292;18.598;2023-04-25T05:56:09;8.87;;;3.67;;
70270;SDS011;57680;54.292;18.598;2023-04-25T05:58:34;12.57;;;4.20;;
70270;SDS011;57680;54.292;18.598;2023-04-25T06:00:59;9.63;;;4.07;;
70270;SDS011;57680;54.292;18.598;2023-04-25T06:03:25;8.57;;;3.13;;
70270;SDS011;57680;54.292;18.598;2023-04-25T06:05:50;8.90;;;3.37;;
70270;SDS011;57680;54.292;18.598;2023-04-25T06:08:15;9.10;;;3.75;;
70270;SDS011;57680;54.292;18.598;2023-04-25T06:10:41;9.60;;;3.20;;
70270;SDS011;57680;54.292;18.598;2023-04-25T06:13:06;7.23;;;2.83;;
70270;SDS011;57680;54.292;18.598;2023-04-25T06:15:31;7.53;;;2.77;;
70270;SDS011;57680;54.292;18.598;2023-04-25T06:17:57;9.20;;;2.53;;
70270;SDS011;57680;54.292;18.598;2023-04-25T06:20:22;6.77;;;2.40;;
70270;SDS011;57680;54.292;18.598;2023-04-25T06:22:47;6.63;;;2.80;;
70270;SDS011;57680;54.292;18.598;2023-04-25T06:25:13;7.80;;;2.88;;
70270;SDS011;57680;54.292;18.598;2023-04-25T06:27:38;9.93;;;3.10;;
70270;SDS011;57680;54.292;18.598;2023-04-25T06:30:04;7.83;;;3.27;;
70270;SDS011;57680;54.292;18.598;2023-04-25T06:32:30;7.60;;;3.03;;
70270;SDS011;57680;54.292;18.598;2023-04-25T06:34:55;7.10;;;2.97;;
70270;SDS011;57680;54.292;18.598;2023-04-25T06:37:20;8.73;;;3.20;;
70270;SDS011;57680;54.292;18.598;2023-04-25T06:39:46;7.27;;;3.10;;
70270;SDS011;57680;54.292;18.598;2023-04-25T06:42:11;8.80;;;3.73;;
70270;SDS011;57680;54.292;18.598;2023-04-25T06:44:37;8.27;;;3.30;;
70270;SDS011;57680;54.292;18.598;2023-04-25T06:47:02;8.37;;;3.80;;
70270;SDS011;57680;54.292;18.598;2023-04-25T06:49:27;8.40;;;3.13;;
70270;SDS011;57680;54.292;18.598;2023-04-25T06:51:53;8.20;;;2.97;;
70270;SDS011;57680;54.292;18.598;2023-04-25T06:54:18;10.33;;;3.33;;
70270;SDS011;57680;54.292;18.598;2023-04-25T06:56:43;8.50;;;4.00;;
70270;SDS011;57680;54.292;18.598;2023-04-25T06:59:09;9.77;;;3.90;;
70270;SDS011;57680;54.292;18.598;2023-04-25T07:01:34;9.00;;;3.90;;
70270;SDS011;57680;54.292;18.598;2023-04-25T07:03:59;9.93;;;4.30;;
70270;SDS011;57680;54.292;18.598;2023-04-25T07:06:25;9.80;;;3.60;;
70270;SDS011;57680;54.292;18.598;2023-04-25T07:08:50;9.25;;;3.58;;
70270;SDS011;57680;54.292;18.598;2023-04-25T07:11:16;9.00;;;3.67;;
70270;SDS011;57680;54.292;18.598;2023-04-25T07:13:41;9.03;;;4.23;;
70270;SDS011;57680;54.292;18.598;2023-04-25T07:16:07;9.80;;;4.20;;
70270;SDS011;57680;54.292;18.598;2023-04-25T07:18:32;7.47;;;2.97;;
70270;SDS011;57680;54.292;18.598;2023-04-25T07:20:57;9.37;;;3.77;;
70270;SDS011;57680;54.292;18.598;2023-04-25T07:23:22;7.53;;;3.60;;
70270;SDS011;57680;54.292;18.598;2023-04-25T07:25:48;8.17;;;3.67;;
70270;SDS011;57680;54.292;18.598;2023-04-25T07:28:13;7.37;;;3.13;;
70270;SDS011;57680;54.292;18.598;2023-04-25T07:30:39;10.67;;;3.60;;
70270;SDS011;57680;54.292;18.598;2023-04-25T07:33:05;7.83;;;3.10;;
70270;SDS011;57680;54.292;18.598;2023-04-25T07:35:31;10.27;;;4.30;;
70270;SDS011;57680;54.292;18.598;2023-04-25T07:37:56;7.80;;;3.27;;
70270;SDS011;57680;54.292;18.598;2023-04-25T07:40:21;7.20;;;3.30;;
70270;SDS011;57680;54.292;18.598;2023-04-25T07:42:47;9.73;;;3.53;;
70270;SDS011;57680;54.292;18.598;2023-04-25T07:45:12;8.47;;;3.53;;
70270;SDS011;57680;54.292;18.598;2023-04-25T07:47:37;8.23;;;3.50;;
70270;SDS011;57680;54.292;18.598;2023-04-25T07:50:03;8.77;;;3.50;;
70270;SDS011;57680;54.292;18.598;2023-04-25T07:52:29;7.30;;;3.22;;
70270;SDS011;57680;54.292;18.598;2023-04-25T07:54:54;8.53;;;3.40;;
70270;SDS011;57680;54.292;18.598;2023-04-25T07:57:20;6.67;;;3.20;;
70270;SDS011;57680;54.292;18.598;2023-04-25T07:59:45;7.63;;;3.20;;
70270;SDS011;57680;54.292;18.598;2023-04-25T08:02:11;7.67;;;3.80;;
70270;SDS011;57680;54.292;18.598;2023-04-25T08:04:36;8.07;;;3.15;;
70270;SDS011;57680;54.292;18.598;2023-04-25T08:07:01;6.23;;;3.20;;
70270;SDS011;57680;54.292;18.598;2023-04-25T08:09:27;6.83;;;3.03;;
70270;SDS011;57680;54.292;18.598;2023-04-25T08:11:52;8.90;;;2.83;;
70270;SDS011;57680;54.292;18.598;2023-04-25T08:14:18;7.88;;;2.75;;
70270;SDS011;57680;54.292;18.598;2023-04-25T08:16:43;7.60;;;2.80;;
70270;SDS011;57680;54.292;18.598;2023-04-25T08:19:09;7.40;;;2.80;;
70270;SDS011;57680;54.292;18.598;2023-04-25T08:21:34;5.78;;;2.35;;
70270;SDS011;57680;54.292;18.598;2023-04-25T08:24:00;7.17;;;2.80;;
70270;SDS011;57680;54.292;18.598;2023-04-25T08:26:25;5.70;;;2.70;;
70270;SDS011;57680;54.292;18.598;2023-04-25T08:28:50;5.83;;;2.40;;
70270;SDS011;57680;54.292;18.598;2023-04-25T08:31:16;6.33;;;2.57;;
70270;SDS011;57680;54.292;18.598;2023-04-25T08:33:41;5.22;;;2.20;;
70270;SDS011;57680;54.292;18.598;2023-04-25T08:36:07;5.50;;;2.40;;
70270;SDS011;57680;54.292;18.598;2023-04-25T08:38:32;4.90;;;2.30;;
70270;SDS011;57680;54.292;18.598;2023-04-25T08:40:58;6.85;;;1.90;;
70270;SDS011;57680;54.292;18.598;2023-04-25T08:43:25;5.70;;;1.93;;
70270;SDS011;57680;54.292;18.598;2023-04-25T08:45:50;4.45;;;1.73;;
70270;SDS011;57680;54.292;18.598;2023-04-25T08:48:18;4.00;;;1.80;;
70270;SDS011;57680;54.292;18.598;2023-04-25T08:50:50;4.97;;;1.70;;
70270;SDS011;57680;54.292;18.598;2023-04-25T08:53:25;4.77;;;1.77;;
70270;SDS011;57680;54.292;18.598;2023-04-25T08:55:52;3.60;;;1.70;;
70270;SDS011;57680;54.292;18.598;2023-04-25T08:58:22;4.78;;;1.63;;
70270;SDS011;57680;54.292;18.598;2023-04-25T09:00:48;4.15;;;1.83;;
70270;SDS011;57680;54.292;18.598;2023-04-25T09:03:15;4.88;;;1.73;;
70270;SDS011;57680;54.292;18.598;2023-04-25T09:05:41;4.63;;;1.60;;
70270;SDS011;57680;54.292;18.598;2023-04-25T09:08:07;6.45;;;2.10;;
70270;SDS011;57680;54.292;18.598;2023-04-25T09:10:33;4.53;;;1.80;;
70270;SDS011;57680;54.292;18.598;2023-04-25T09:13:08;5.10;;;2.00;;
70270;SDS011;57680;54.292;18.598;2023-04-25T09:15:51;4.93;;;1.95;;
70270;SDS011;57680;54.292;18.598;2023-04-25T09:18:27;6.75;;;2.55;;
70270;SDS011;57680;54.292;18.598;2023-04-25T09:20:58;4.60;;;1.98;;
70270;SDS011;57680;54.292;18.598;2023-04-25T09:23:31;4.47;;;1.88;;
70270;SDS011;57680;54.292;18.598;2023-04-25T09:26:06;5.00;;;1.90;;
70270;SDS011;57680;54.292;18.598;2023-04-25T09:28:32;4.65;;;2.25;;
70270;SDS011;57680;54.292;18.598;2023-04-25T09:30:57;4.70;;;2.00;;
70270;SDS011;57680;54.292;18.598;2023-04-25T09:33:30;4.95;;;1.48;;
70270;SDS011;57680;54.292;18.598;2023-04-25T09:36:04;4.32;;;1.70;;
70270;SDS011;57680;54.292;18.598;2023-04-25T09:38:31;7.93;;;1.80;;
70270;SDS011;57680;54.292;18.598;2023-04-25T09:40:58;4.90;;;2.00;;
70270;SDS011;57680;54.292;18.598;2023-04-25T09:43:24;6.82;;;2.28;;
70270;SDS011;57680;54.292;18.598;2023-04-25T09:45:50;4.65;;;1.83;;
70270;SDS011;57680;54.292;18.598;2023-04-25T09:48:18;4.38;;;1.70;;
70270;SDS011;57680;54.292;18.598;2023-04-25T09:50:44;4.53;;;1.90;;
70270;SDS011;57680;54.292;18.598;2023-04-25T09:53:10;5.23;;;1.40;;
70270;SDS011;57680;54.292;18.598;2023-04-25T09:55:36;5.17;;;1.83;;
70270;SDS011;57680;54.292;18.598;2023-04-25T09:58:06;6.85;;;2.20;;
70270;SDS011;57680;54.292;18.598;2023-04-25T10:00:31;4.97;;;1.90;;
70270;SDS011;57680;54.292;18.598;2023-04-25T10:02:57;5.47;;;2.00;;
70270;SDS011;57680;54.292;18.598;2023-04-25T10:05:28;4.43;;;1.85;;
70270;SDS011;57680;54.292;18.598;2023-04-25T10:07:55;5.50;;;1.90;;
70270;SDS011;57680;54.292;18.598;2023-04-25T10:10:21;5.63;;;2.50;;
70270;SDS011;57680;54.292;18.598;2023-04-25T10:12:47;4.85;;;1.80;;
70270;SDS011;57680;54.292;18.598;2023-04-25T10:15:12;5.87;;;1.80;;
70270;SDS011;57680;54.292;18.598;2023-04-25T10:17:39;4.90;;;1.92;;
70270;SDS011;57680;54.292;18.598;2023-04-25T10:20:05;4.20;;;1.90;;
70270;SDS011;57680;54.292;18.598;2023-04-25T10:22:39;6.55;;;2.20;;
70270;SDS011;57680;54.292;18.598;2023-04-25T10:25:07;5.03;;;1.90;;
70270;SDS011;57680;54.292;18.598;2023-04-25T10:27:33;7.28;;;2.40;;
70270;SDS011;57680;54.292;18.598;2023-04-25T10:30:07;8.70;;;2.20;;
70270;SDS011;57680;54.292;18.598;2023-04-25T10:32:33;6.03;;;2.10;;
70270;SDS011;57680;54.292;18.598;2023-04-25T10:35:09;5.63;;;2.00;;
70270;SDS011;57680;54.292;18.598;2023-04-25T10:40:38;6.00;;;2.28;;
70270;SDS011;57680;54.292;18.598;2023-04-25T10:46:00;4.78;;;1.65;;
70270;SDS011;57680;54.292;18.598;2023-04-25T10:48:27;4.47;;;1.90;;
70270;SDS011;57680;54.292;18.598;2023-04-25T10:51:09;5.18;;;2.03;;
70270;SDS011;57680;54.292;18.598;2023-04-25T10:53:35;4.60;;;1.70;;
70270;SDS011;57680;54.292;18.598;2023-04-25T10:56:00;4.85;;;2.25;;
70270;SDS011;57680;54.292;18.598;2023-04-25T10:58:33;5.93;;;1.90;;
70270;SDS011;57680;54.292;18.598;2023-04-25T11:00:59;4.60;;;1.80;;
70270;SDS011;57680;54.292;18.598;2023-04-25T11:03:25;3.80;;;1.73;;
70270;SDS011;57680;54.292;18.598;2023-04-25T11:05:51;4.67;;;2.00;;
70270;SDS011;57680;54.292;18.598;2023-04-25T11:08:17;4.20;;;1.80;;
70270;SDS011;57680;54.292;18.598;2023-04-25T11:10:54;4.30;;;1.88;;
70270;SDS011;57680;54.292;18.598;2023-04-25T11:13:20;5.33;;;1.80;;
70270;SDS011;57680;54.292;18.598;2023-04-25T11:15:50;4.07;;;1.60;;
70270;SDS011;57680;54.292;18.598;2023-04-25T11:18:16;4.90;;;1.80;;
70270;SDS011;57680;54.292;18.598;2023-04-25T11:20:42;3.95;;;1.80;;
70270;SDS011;57680;54.292;18.598;2023-04-25T11:23:08;4.35;;;1.80;;
70270;SDS011;57680;54.292;18.598;2023-04-25T11:25:33;4.83;;;2.10;;
70270;SDS011;57680;54.292;18.598;2023-04-25T11:27:59;5.70;;;2.23;;
70270;SDS011;57680;54.292;18.598;2023-04-25T11:30:25;5.47;;;2.00;;
70270;SDS011;57680;54.292;18.598;2023-04-25T11:32:51;6.75;;;2.05;;
70270;SDS011;57680;54.292;18.598;2023-04-25T11:35:17;6.27;;;2.10;;
70270;SDS011;57680;54.292;18.598;2023-04-25T11:37:45;4.95;;;2.10;;
70270;SDS011;57680;54.292;18.598;2023-04-25T11:40:11;5.20;;;2.13;;
70270;SDS011;57680;54.292;18.598;2023-04-25T11:42:37;4.60;;;1.73;;
70270;SDS011;57680;54.292;18.598;2023-04-25T11:45:04;6.72;;;2.05;;
70270;SDS011;57680;54.292;18.598;2023-04-25T11:47:30;5.10;;;2.03;;
70270;SDS011;57680;54.292;18.598;2023-04-25T11:49:57;3.90;;;1.57;;
70270;SDS011;57680;54.292;18.598;2023-04-25T11:52:39;4.65;;;2.00;;
70270;SDS011;57680;54.292;18.598;2023-04-25T11:55:08;5.32;;;2.05;;
70270;SDS011;57680;54.292;18.598;2023-04-25T11:57:34;5.50;;;2.40;;
70270;SDS011;57680;54.292;18.598;2023-04-25T12:00:10;5.93;;;2.60;;
70270;SDS011;57680;54.292;18.598;2023-04-25T12:02:37;8.90;;;1.92;;
70270;SDS011;57680;54.292;18.598;2023-04-25T12:05:08;8.13;;;2.50;;
70270;SDS011;57680;54.292;18.598;2023-04-25T12:07:35;6.22;;;2.40;;
70270;SDS011;57680;54.292;18.598;2023-04-25T12:10:04;4.60;;;2.40;;
70270;SDS011;57680;54.292;18.598;2023-04-25T12:12:34;9.77;;;2.35;;
70270;SDS011;57680;54.292;18.598;2023-04-25T12:15:10;7.07;;;2.40;;
70270;SDS011;57680;54.292;18.598;2023-04-25T12:18:02;4.23;;;1.80;;
70270;SDS011;57680;54.292;18.598;2023-04-25T12:20:27;7.38;;;1.90;;
70270;SDS011;57680;54.292;18.598;2023-04-25T12:22:53;5.37;;;1.90;;
70270;SDS011;57680;54.292;18.598;2023-04-25T12:25:37;5.00;;;1.80;;
70270;SDS011;57680;54.292;18.598;2023-04-25T12:28:19;4.68;;;1.70;;
70270;SDS011;57680;54.292;18.598;2023-04-25T12:33:28;5.87;;;2.20;;
70270;SDS011;57680;54.292;18.598;2023-04-25T12:35:55;4.32;;;1.90;;
70270;SDS011;57680;54.292;18.598;2023-04-25T12:38:21;7.40;;;2.50;;
70270;SDS011;57680;54.292;18.598;2023-04-25T12:40:53;4.53;;;1.88;;
70270;SDS011;57680;54.292;18.598;2023-04-25T12:43:19;5.47;;;2.20;;
70270;SDS011;57680;54.292;18.598;2023-04-25T12:45:47;5.47;;;2.00;;
70270;SDS011;57680;54.292;18.598;2023-04-25T12:48:13;5.10;;;2.10;;
70270;SDS011;57680;54.292;18.598;2023-04-25T12:50:38;6.53;;;2.00;;
70270;SDS011;57680;54.292;18.598;2023-04-25T12:53:04;6.27;;;2.40;;
70270;SDS011;57680;54.292;18.598;2023-04-25T12:55:29;7.10;;;2.47;;
70270;SDS011;57680;54.292;18.598;2023-04-25T12:57:54;7.10;;;2.30;;
70270;SDS011;57680;54.292;18.598;2023-04-25T13:00:20;6.60;;;2.40;;
70270;SDS011;57680;54.292;18.598;2023-04-25T13:02:45;6.27;;;2.30;;
70270;SDS011;57680;54.292;18.598;2023-04-25T13:05:11;8.10;;;2.85;;
70270;SDS011;57680;54.292;18.598;2023-04-25T13:07:36;5.90;;;2.20;;
70270;SDS011;57680;54.292;18.598;2023-04-25T13:10:01;5.60;;;2.17;;
70270;SDS011;57680;54.292;18.598;2023-04-25T13:12:26;7.33;;;2.57;;
70270;SDS011;57680;54.292;18.598;2023-04-25T13:14:52;11.27;;;3.37;;
70270;SDS011;57680;54.292;18.598;2023-04-25T13:17:17;9.00;;;3.13;;
70270;SDS011;57680;54.292;18.598;2023-04-25T13:19:42;7.90;;;3.00;;
70270;SDS011;57680;54.292;18.598;2023-04-25T13:22:08;6.87;;;2.63;;
70270;SDS011;57680;54.292;18.598;2023-04-25T13:24:33;7.82;;;2.65;;
70270;SDS011;57680;54.292;18.598;2023-04-25T13:26:58;8.57;;;3.50;;
70270;SDS011;57680;54.292;18.598;2023-04-25T13:29:24;9.13;;;3.63;;
70270;SDS011;57680;54.292;18.598;2023-04-25T13:31:49;8.07;;;3.67;;
70270;SDS011;57680;54.292;18.598;2023-04-25T13:34:14;9.70;;;3.60;;
70270;SDS011;57680;54.292;18.598;2023-04-25T13:36:40;9.70;;;3.60;;
70270;SDS011;57680;54.292;18.598;2023-04-25T13:39:05;6.33;;;3.07;;
70270;SDS011;57680;54.292;18.598;2023-04-25T13:41:30;7.53;;;3.27;;
70270;SDS011;57680;54.292;18.598;2023-04-25T13:43:55;7.27;;;3.10;;
70270;SDS011;57680;54.292;18.598;2023-04-25T13:46:21;6.70;;;3.20;;
70270;SDS011;57680;54.292;18.598;2023-04-25T13:48:46;5.75;;;2.63;;
70270;SDS011;57680;54.292;18.598;2023-04-25T13:51:12;8.47;;;3.10;;
70270;SDS011;57680;54.292;18.598;2023-04-25T13:53:38;8.00;;;2.90;;
70270;SDS011;57680;54.292;18.598;2023-04-25T13:56:03;6.90;;;3.30;;
70270;SDS011;57680;54.292;18.598;2023-04-25T13:58:28;8.87;;;3.00;;
70270;SDS011;57680;54.292;18.598;2023-04-25T14:00:54;6.40;;;2.93;;
70270;SDS011;57680;54.292;18.598;2023-04-25T14:03:19;7.10;;;3.23;;
70270;SDS011;57680;54.292;18.598;2023-04-25T14:05:44;9.30;;;3.50;;
70270;SDS011;57680;54.292;18.598;2023-04-25T14:08:10;8.90;;;4.00;;
70270;SDS011;57680;54.292;18.598;2023-04-25T14:10:35;8.40;;;3.27;;
70270;SDS011;57680;54.292;18.598;2023-04-25T14:13:02;8.07;;;3.20;;
70270;SDS011;57680;54.292;18.598;2023-04-25T14:15:27;8.32;;;3.20;;
70270;SDS011;57680;54.292;18.598;2023-04-25T14:17:53;8.10;;;2.90;;
70270;SDS011;57680;54.292;18.598;2023-04-25T14:20:18;7.67;;;3.10;;
70270;SDS011;57680;54.292;18.598;2023-04-25T14:22:43;7.30;;;2.80;;
70270;SDS011;57680;54.292;18.598;2023-04-25T14:25:09;8.30;;;3.23;;
70270;SDS011;57680;54.292;18.598;2023-04-25T14:27:34;6.70;;;3.03;;
70270;SDS011;57680;54.292;18.598;2023-04-25T14:29:59;9.00;;;3.30;;
70270;SDS011;57680;54.292;18.598;2023-04-25T14:32:24;9.50;;;3.37;;
70270;SDS011;57680;54.292;18.598;2023-04-25T14:34:50;9.43;;;3.63;;